Time;durP1;ratioP1;P1;durP2;ratioP2;P2;SDS_P1;SDS_P2;PMS_P1;PMS_P2;Temp;Humidity;BMP_temperature;BMP_pressure;BME280_temperature;BME280_humidity;BME280_pressure;Samples;Min_cycle;Max_cycle;Signal;HPM_P1;HPM_P2
2022/06/25 00:01:14;;;;;;;2.80;1.80;;;;;;;;;;5072466;28;20381;-75
2022/06/25 00:03:40;;;;;;;2.87;2.27;;;;;;;;;;5072227;28;20419;-74
2022/06/25 00:06:07;;;;;;;2.70;2.07;;;;;;;;;;5072516;28;20398;-75
2022/06/25 00:08:34;;;;;;;3.80;1.97;;;;;;;;;;5072277;28;20461;-74
2022/06/25 00:11:01;;;;;;;3.10;2.13;;;;;;;;;;5072038;28;20789;-74
2022/06/25 00:13:27;;;;;;;8.30;2.07;;;;;;;;;;5072047;28;20413;-75
2022/06/25 00:15:53;;;;;;;4.53;2.47;;;;;;;;;;5072337;28;20446;-74
2022/06/25 00:18:19;;;;;;;10.43;3.80;;;;;;;;;;5072583;28;20435;-74
2022/06/25 00:20:45;;;;;;;3.50;2.23;;;;;;;;;;5072313;28;20403;-74
2022/06/25 00:23:11;;;;;;;6.13;2.67;;;;;;;;;;5071819;28;20404;-74
2022/06/25 00:25:38;;;;;;;4.53;2.23;;;;;;;;;;5072046;28;20488;-75
2022/06/25 00:28:04;;;;;;;3.23;2.50;;;;;;;;;;5072319;28;20415;-75
2022/06/25 00:30:30;;;;;;;3.03;2.73;;;;;;;;;;5072183;28;20444;-75
2022/06/25 00:32:56;;;;;;;4.57;1.80;;;;;;;;;;5071648;28;20466;-74
2022/06/25 00:35:22;;;;;;;6.63;2.27;;;;;;;;;;5071871;28;20776;-75
2022/06/25 00:37:48;;;;;;;4.80;2.67;;;;;;;;;;5072121;28;20478;-74
2022/06/25 00:40:14;;;;;;;3.40;2.27;;;;;;;;;;5070826;28;20487;-76
2022/06/25 00:42:44;;;;;;;5.77;2.67;;;;;;;;;;5071287;28;20399;-75
2022/06/25 00:45:10;;;;;;;5.50;1.97;;;;;;;;;;5070613;28;20501;-75
2022/06/25 00:47:36;;;;;;;2.57;2.20;;;;;;;;;;5074808;28;20408;-75
2022/06/25 00:50:02;;;;;;;3.00;2.63;;;;;;;;;;5075948;28;20389;-75
2022/06/25 00:52:32;;;;;;;4.47;2.67;;;;;;;;;;5075761;28;20412;-75
2022/06/25 00:55:02;;;;;;;3.73;2.33;;;;;;;;;;5075555;28;20503;-73
2022/06/25 00:57:29;;;;;;;4.30;2.10;;;;;;;;;;5075607;28;20378;-75
2022/06/25 00:59:59;;;;;;;3.87;2.30;;;;;;;;;;5075818;28;20494;-76
2022/06/25 01:02:25;;;;;;;3.07;2.33;;;;;;;;;;5075581;28;20382;-75
2022/06/25 01:04:51;;;;;;;5.33;2.07;;;;;;;;;;5074056;28;20427;-75
2022/06/25 01:07:18;;;;;;;6.37;2.33;;;;;;;;;;5075752;28;20426;-74
2022/06/25 01:09:46;;;;;;;3.30;2.47;;;;;;;;;;5075725;28;20419;-76
2022/06/25 01:12:12;;;;;;;6.40;2.80;;;;;;;;;;5075712;28;20846;-76
2022/06/25 01:14:38;;;;;;;5.97;2.77;;;;;;;;;;5074924;28;21024;-75
2022/06/25 01:17:05;;;;;;;7.60;2.77;;;;;;;;;;5075272;28;20435;-75
2022/06/25 01:19:31;;;;;;;4.73;3.10;;;;;;;;;;5073901;28;20411;-74
2022/06/25 01:22:03;;;;;;;3.60;2.50;;;;;;;;;;5075067;28;20422;-75
2022/06/25 01:24:29;;;;;;;5.20;3.07;;;;;;;;;;5073559;28;20828;-74
2022/06/25 01:26:55;;;;;;;5.37;3.00;;;;;;;;;;5073777;28;20451;-74
2022/06/25 01:29:21;;;;;;;6.50;3.43;;;;;;;;;;5073706;28;20757;-74
2022/06/25 01:31:47;;;;;;;3.33;3.03;;;;;;;;;;5073441;28;20451;-76
2022/06/25 01:34:13;;;;;;;5.20;2.83;;;;;;;;;;5074528;28;20931;-76
2022/06/25 01:36:39;;;;;;;4.03;3.40;;;;;;;;;;5074841;28;20908;-74
2022/06/25 01:39:05;;;;;;;4.73;3.07;;;;;;;;;;5074903;28;20404;-74
2022/06/25 01:41:30;;;;;;;5.83;3.20;;;;;;;;;;5075002;28;21055;-75
2022/06/25 01:43:56;;;;;;;5.03;3.10;;;;;;;;;;5074490;28;20390;-75
2022/06/25 01:46:22;;;;;;;5.03;2.90;;;;;;;;;;5074715;28;20545;-75
2022/06/25 01:48:49;;;;;;;4.93;3.30;;;;;;;;;;5074848;28;20517;-75
2022/06/25 01:51:16;;;;;;;7.43;3.00;;;;;;;;;;5074797;28;20415;-75
2022/06/25 01:53:42;;;;;;;4.53;2.83;;;;;;;;;;5074511;28;20780;-74
2022/06/25 01:56:08;;;;;;;7.63;3.70;;;;;;;;;;5074754;28;20459;-75
2022/06/25 01:58:34;;;;;;;5.83;2.83;;;;;;;;;;5073646;28;20404;-75
2022/06/25 02:01:00;;;;;;;3.20;2.83;;;;;;;;;;5074676;28;20783;-75
2022/06/25 02:03:27;;;;;;;5.33;3.30;;;;;;;;;;5072949;28;20404;-74
2022/06/25 02:05:59;;;;;;;4.70;3.10;;;;;;;;;;5074433;28;20430;-74
2022/06/25 02:08:27;;;;;;;10.30;3.50;;;;;;;;;;5074565;28;20377;-74
2022/06/25 02:10:53;;;;;;;7.00;3.63;;;;;;;;;;5074495;28;20741;-75
2022/06/25 02:13:19;;;;;;;4.53;2.87;;;;;;;;;;5073968;28;20422;-74
2022/06/25 02:15:45;;;;;;;5.43;3.00;;;;;;;;;;5074000;28;20434;-74
2022/06/25 02:18:11;;;;;;;6.23;3.43;;;;;;;;;;5074113;28;20427;-74
2022/06/25 02:20:38;;;;;;;8.20;3.17;;;;;;;;;;5074218;28;20436;-74
2022/06/25 02:23:04;;;;;;;7.50;4.20;;;;;;;;;;5073765;28;20412;-74
2022/06/25 02:25:30;;;;;;;7.10;3.00;;;;;;;;;;5074040;28;20407;-74
2022/06/25 02:27:56;;;;;;;3.60;3.10;;;;;;;;;;5072626;28;20912;-75
2022/06/25 02:30:22;;;;;;;5.80;3.23;;;;;;;;;;5072623;28;20386;-74
2022/06/25 02:32:48;;;;;;;8.50;3.20;;;;;;;;;;5073741;28;20431;-74
2022/06/25 02:35:15;;;;;;;4.00;3.13;;;;;;;;;;5073486;28;20862;-75
2022/06/25 02:37:41;;;;;;;4.23;2.80;;;;;;;;;;5073892;28;20404;-74
2022/06/25 02:40:08;;;;;;;6.20;3.53;;;;;;;;;;5073783;28;20453;-75
2022/06/25 02:42:37;;;;;;;8.27;3.30;;;;;;;;;;5073700;28;20397;-76
2022/06/25 02:45:04;;;;;;;7.93;3.83;;;;;;;;;;5073394;28;20770;-75
2022/06/25 02:47:30;;;;;;;6.13;4.17;;;;;;;;;;5073768;28;20408;-74
2022/06/25 02:49:56;;;;;;;5.33;3.50;;;;;;;;;;5072555;28;20888;-76
2022/06/25 02:52:22;;;;;;;8.80;3.30;;;;;;;;;;5073549;28;20441;-74
2022/06/25 02:54:48;;;;;;;11.30;3.97;;;;;;;;;;5073048;28;20463;-75
2022/06/25 02:59:59;;;;;;;7.63;3.60;;;;;;;;;;5073908;28;20903;-75
2022/06/25 03:02:25;;;;;;;7.43;3.70;;;;;;;;;;5073384;28;20485;-75
2022/06/25 03:04:51;;;;;;;5.10;3.20;;;;;;;;;;5073027;28;20919;-75
2022/06/25 03:07:17;;;;;;;8.57;4.63;;;;;;;;;;5073279;28;20370;-74
2022/06/25 03:09:43;;;;;;;7.87;3.80;;;;;;;;;;5072955;28;20490;-75
2022/06/25 03:12:09;;;;;;;8.73;3.57;;;;;;;;;;5073522;28;20469;-74
2022/06/25 03:14:35;;;;;;;8.03;3.57;;;;;;;;;;5072746;28;20475;-75
2022/06/25 03:17:01;;;;;;;11.27;3.90;;;;;;;;;;5073390;28;20419;-75
2022/06/25 03:19:27;;;;;;;4.10;3.70;;;;;;;;;;5073178;28;20503;-75
2022/06/25 03:21:53;;;;;;;7.13;3.70;;;;;;;;;;5073163;28;20412;-76
2022/06/25 03:24:19;;;;;;;6.13;3.83;;;;;;;;;;5072664;28;20411;-75
2022/06/25 03:26:45;;;;;;;4.03;3.63;;;;;;;;;;5072913;28;20379;-74
2022/06/25 03:29:11;;;;;;;5.53;3.20;;;;;;;;;;5073004;28;20386;-75
2022/06/25 03:31:37;;;;;;;6.17;3.83;;;;;;;;;;5071542;28;20431;-75
2022/06/25 03:34:03;;;;;;;4.63;2.83;;;;;;;;;;5071279;28;21025;-74
2022/06/25 03:36:29;;;;;;;5.50;3.67;;;;;;;;;;5072595;28;20529;-75
2022/06/25 03:38:55;;;;;;;7.07;3.40;;;;;;;;;;5072734;28;20407;-74
2022/06/25 03:41:33;;;;;;;7.13;3.67;;;;;;;;;;5072740;28;20410;-74
2022/06/25 03:44:06;;;;;;;6.23;3.70;;;;;;;;;;5072615;28;20495;-75
2022/06/25 03:46:33;;;;;;;12.90;5.40;;;;;;;;;;5047027;28;20415;-75
2022/06/25 03:48:59;;;;;;;5.13;3.80;;;;;;;;;;5032730;28;20500;-75
2022/06/25 03:51:25;;;;;;;5.83;3.50;;;;;;;;;;5032747;28;20391;-76
2022/06/25 03:53:51;;;;;;;6.47;3.93;;;;;;;;;;5032382;28;20445;-75
2022/06/25 03:56:17;;;;;;;7.40;3.70;;;;;;;;;;5032498;28;20472;-75
2022/06/25 03:58:43;;;;;;;4.77;4.00;;;;;;;;;;5031133;28;20389;-75
2022/06/25 04:01:09;;;;;;;13.60;4.40;;;;;;;;;;5031578;28;20392;-75
2022/06/25 04:03:35;;;;;;;5.30;3.73;;;;;;;;;;5032510;28;20417;-75
2022/06/25 04:06:02;;;;;;;9.80;3.83;;;;;;;;;;5032664;28;20425;-75
2022/06/25 04:08:28;;;;;;;7.00;3.83;;;;;;;;;;5032914;28;20435;-76
2022/06/25 04:10:54;;;;;;;8.13;4.13;;;;;;;;;;5032602;28;20417;-75
2022/06/25 04:13:20;;;;;;;5.73;4.00;;;;;;;;;;5032426;28;20479;-76
2022/06/25 04:15:46;;;;;;;8.10;3.90;;;;;;;;;;5032351;28;20507;-75
2022/06/25 04:18:12;;;;;;;8.87;4.20;;;;;;;;;;5032656;28;20873;-76
2022/06/25 04:20:38;;;;;;;14.57;3.97;;;;;;;;;;5032565;28;20413;-76
2022/06/25 04:23:05;;;;;;;5.90;3.97;;;;;;;;;;5034652;28;20462;-75
2022/06/25 04:25:30;;;;;;;12.10;4.43;;;;;;;;;;5036652;28;20784;-74
2022/06/25 04:30:41;;;;;;;4.90;3.83;;;;;;;;;;5035810;28;20467;-76
2022/06/25 04:33:07;;;;;;;6.20;3.80;;;;;;;;;;5035976;28;20391;-76
2022/06/25 04:35:33;;;;;;;8.30;3.87;;;;;;;;;;5036332;28;20455;-76
2022/06/25 04:37:59;;;;;;;10.43;3.63;;;;;;;;;;5035129;28;20451;-77
2022/06/25 04:40:26;;;;;;;6.53;3.50;;;;;;;;;;5036302;28;20857;-76
2022/06/25 04:42:52;;;;;;;4.73;3.90;;;;;;;;;;5035847;28;20930;-76
2022/06/25 04:45:18;;;;;;;4.70;3.87;;;;;;;;;;5035976;28;20911;-75
2022/06/25 04:47:44;;;;;;;8.10;4.20;;;;;;;;;;5036295;28;20833;-74
2022/06/25 04:50:10;;;;;;;7.23;4.00;;;;;;;;;;5036014;28;20868;-74
2022/06/25 04:52:36;;;;;;;12.10;3.97;;;;;;;;;;5036275;28;20424;-77
2022/06/25 04:55:02;;;;;;;5.87;3.83;;;;;;;;;;5035658;28;20473;-75
2022/06/25 04:57:28;;;;;;;7.93;3.70;;;;;;;;;;5034613;28;20734;-75
2022/06/25 04:59:54;;;;;;;10.30;4.37;;;;;;;;;;5036019;28;20422;-76
2022/06/25 05:02:20;;;;;;;7.93;4.07;;;;;;;;;;5034651;28;20424;-74
2022/06/25 05:04:46;;;;;;;16.03;4.70;;;;;;;;;;5035723;28;20470;-76
2022/06/25 05:07:12;;;;;;;9.10;3.80;;;;;;;;;;5035823;28;20486;-75
2022/06/25 05:09:38;;;;;;;8.47;3.90;;;;;;;;;;5034844;28;20848;-75
2022/06/25 05:12:05;;;;;;;5.60;3.67;;;;;;;;;;5035898;28;20392;-76
2022/06/25 05:14:31;;;;;;;11.60;5.10;;;;;;;;;;5033878;28;20980;-76
2022/06/25 05:16:57;;;;;;;8.10;4.03;;;;;;;;;;5035700;28;20392;-76
2022/06/25 05:19:23;;;;;;;6.57;4.53;;;;;;;;;;5035658;28;20410;-77
2022/06/25 05:21:49;;;;;;;5.80;4.10;;;;;;;;;;5034468;28;20392;-75
2022/06/25 05:24:15;;;;;;;6.03;3.50;;;;;;;;;;5035198;28;20771;-76
2022/06/25 05:26:41;;;;;;;4.10;3.50;;;;;;;;;;5035624;28;20458;-77
2022/06/25 05:29:07;;;;;;;4.50;3.40;;;;;;;;;;5035460;28;20413;-75
2022/06/25 05:31:33;;;;;;;6.73;3.53;;;;;;;;;;5035221;28;20824;-75
2022/06/25 05:33:59;;;;;;;6.93;3.47;;;;;;;;;;5033768;28;20472;-76
2022/06/25 05:36:24;;;;;;;10.20;3.40;;;;;;;;;;5035125;28;20505;-76
2022/06/25 05:38:51;;;;;;;4.67;3.40;;;;;;;;;;5035265;28;20418;-74
2022/06/25 05:41:17;;;;;;;5.63;3.27;;;;;;;;;;5035206;28;20389;-75
2022/06/25 05:43:43;;;;;;;4.60;3.10;;;;;;;;;;5034753;28;20396;-75
2022/06/25 05:46:09;;;;;;;5.30;3.63;;;;;;;;;;5035219;28;20429;-74
2022/06/25 05:48:35;;;;;;;6.60;3.73;;;;;;;;;;5035174;28;20467;-75
2022/06/25 05:51:02;;;;;;;6.40;3.40;;;;;;;;;;5035235;28;20501;-74
2022/06/25 05:53:28;;;;;;;8.93;3.30;;;;;;;;;;5033292;28;20758;-75
2022/06/25 05:55:54;;;;;;;14.87;3.67;;;;;;;;;;5034901;28;20982;-76
2022/06/25 05:58:22;;;;;;;6.43;3.40;;;;;;;;;;5033601;28;20413;-75
2022/06/25 06:00:48;;;;;;;6.43;3.80;;;;;;;;;;5034766;28;20405;-75
2022/06/25 06:03:14;;;;;;;4.73;2.70;;;;;;;;;;5034344;28;20391;-74
2022/06/25 06:05:40;;;;;;;4.00;3.10;;;;;;;;;;5034407;28;20432;-75
2022/06/25 06:08:06;;;;;;;3.10;2.80;;;;;;;;;;5034832;28;20772;-76
2022/06/25 06:10:32;;;;;;;4.03;3.50;;;;;;;;;;5034535;28;20414;-75
2022/06/25 06:12:58;;;;;;;4.17;3.10;;;;;;;;;;5034176;28;20472;-75
2022/06/25 06:15:24;;;;;;;5.37;2.93;;;;;;;;;;5034284;28;20461;-75
2022/06/25 06:17:50;;;;;;;8.37;2.90;;;;;;;;;;5032982;28;20467;-74
2022/06/25 06:20:16;;;;;;;2.37;2.17;;;;;;;;;;5033087;28;20396;-75
2022/06/25 06:22:42;;;;;;;7.83;3.03;;;;;;;;;;5034376;28;20433;-75
2022/06/25 06:25:08;;;;;;;4.47;2.30;;;;;;;;;;5033833;28;20445;-76
2022/06/25 06:27:34;;;;;;;6.40;2.67;;;;;;;;;;5034126;28;20420;-75
2022/06/25 06:30:01;;;;;;;4.90;3.17;;;;;;;;;;5034053;28;20427;-75
2022/06/25 06:32:27;;;;;;;4.93;3.20;;;;;;;;;;5034072;28;20408;-76
2022/06/25 06:34:53;;;;;;;7.73;3.00;;;;;;;;;;5033596;28;20456;-75
2022/06/25 06:37:19;;;;;;;3.60;2.30;;;;;;;;;;5033972;28;20384;-75
2022/06/25 06:39:45;;;;;;;3.27;1.97;;;;;;;;;;5033671;28;20417;-76
2022/06/25 06:42:11;;;;;;;2.80;2.43;;;;;;;;;;5032476;28;20883;-76
2022/06/25 06:44:37;;;;;;;3.57;2.30;;;;;;;;;;5033147;28;20492;-76
2022/06/25 06:47:03;;;;;;;3.60;2.73;;;;;;;;;;5032769;28;20421;-76
2022/06/25 06:49:29;;;;;;;4.47;1.93;;;;;;;;;;5034029;28;20760;-75
2022/06/25 06:51:55;;;;;;;3.50;2.93;;;;;;;;;;5033718;28;20413;-75
2022/06/25 06:54:21;;;;;;;5.33;2.00;;;;;;;;;;5033119;28;20429;-74
2022/06/25 06:56:47;;;;;;;7.20;2.53;;;;;;;;;;5033670;28;20414;-76
2022/06/25 06:59:13;;;;;;;6.83;2.23;;;;;;;;;;5033910;28;20413;-76
2022/06/25 07:01:39;;;;;;;4.27;1.83;;;;;;;;;;5033812;28;20885;-75
2022/06/25 07:04:05;;;;;;;5.93;2.20;;;;;;;;;;5033102;28;20497;-75
2022/06/25 07:06:31;;;;;;;5.87;2.27;;;;;;;;;;5033341;28;20815;-74
2022/06/25 07:08:57;;;;;;;3.87;2.00;;;;;;;;;;5033431;28;20388;-74
2022/06/25 07:11:29;;;;;;;2.20;1.40;;;;;;;;;;5033362;28;20387;-75
2022/06/25 07:14:03;;;;;;;4.90;2.03;;;;;;;;;;5032960;28;20763;-74
2022/06/25 07:16:30;;;;;;;4.10;1.57;;;;;;;;;;5031853;28;20595;-74
2022/06/25 07:18:57;;;;;;;4.60;1.77;;;;;;;;;;5033404;28;20424;-74
2022/06/25 07:21:23;;;;;;;4.37;1.87;;;;;;;;;;5033080;28;20413;-76
2022/06/25 07:23:49;;;;;;;5.80;1.90;;;;;;;;;;5032989;28;20833;-74
2022/06/25 07:26:15;;;;;;;2.13;1.53;;;;;;;;;;5033060;28;20452;-75
2022/06/25 07:28:41;;;;;;;3.20;1.40;;;;;;;;;;5033139;28;20428;-75
2022/06/25 07:31:07;;;;;;;4.80;1.63;;;;;;;;;;5033041;28;20982;-75
2022/06/25 07:33:34;;;;;;;2.97;1.60;;;;;;;;;;5032745;28;20448;-75
2022/06/25 07:36:00;;;;;;;4.70;1.10;;;;;;;;;;5032891;28;20465;-76
2022/06/25 07:38:26;;;;;;;2.37;1.53;;;;;;;;;;5032847;28;20399;-75
2022/06/25 07:40:52;;;;;;;2.70;1.30;;;;;;;;;;5032973;28;20496;-74
2022/06/25 07:43:18;;;;;;;4.90;1.47;;;;;;;;;;5031251;28;20456;-74
2022/06/25 07:45:44;;;;;;;4.60;1.50;;;;;;;;;;5038863;28;20442;-75
2022/06/25 07:48:10;;;;;;;3.63;1.17;;;;;;;;;;5052655;28;20422;-75
2022/06/25 07:53:21;;;;;;;4.50;1.73;;;;;;;;;;5044742;28;20911;-75
2022/06/25 07:55:47;;;;;;;4.93;1.30;;;;;;;;;;5031831;28;20477;-73
2022/06/25 07:58:13;;;;;;;1.80;1.50;;;;;;;;;;5039663;28;20789;-73
2022/06/25 08:00:39;;;;;;;5.57;1.73;;;;;;;;;;5042304;28;20512;-73
2022/06/25 08:03:05;;;;;;;5.20;1.50;;;;;;;;;;5037434;28;20823;-73
2022/06/25 08:05:33;;;;;;;4.87;1.67;;;;;;;;;;5032695;28;20449;-73
2022/06/25 08:07:59;;;;;;;3.73;1.40;;;;;;;;;;5033043;28;20402;-73
2022/06/25 08:10:25;;;;;;;1.97;1.17;;;;;;;;;;5042333;28;20412;-72
2022/06/25 08:12:51;;;;;;;1.87;1.20;;;;;;;;;;5038857;28;20422;-76
2022/06/25 08:15:19;;;;;;;3.87;1.20;;;;;;;;;;5032845;28;20472;-77
2022/06/25 08:17:45;;;;;;;4.20;1.53;;;;;;;;;;5032801;28;20410;-76
2022/06/25 08:20:12;;;;;;;2.00;1.30;;;;;;;;;;5032710;28;20757;-77
2022/06/25 08:22:38;;;;;;;2.13;1.20;;;;;;;;;;5032376;28;20547;-76
2022/06/25 08:25:04;;;;;;;4.80;1.60;;;;;;;;;;5030650;28;20433;-76
2022/06/25 08:27:31;;;;;;;3.13;1.30;;;;;;;;;;5034744;28;20406;-76
2022/06/25 08:29:57;;;;;;;11.30;1.53;;;;;;;;;;5049283;28;20399;-76
2022/06/25 08:32:23;;;;;;;3.27;1.53;;;;;;;;;;5051872;28;20832;-76
2022/06/25 08:34:49;;;;;;;2.20;1.23;;;;;;;;;;5036941;28;20515;-76
2022/06/25 08:37:15;;;;;;;6.90;1.40;;;;;;;;;;5039738;28;20408;-78
2022/06/25 08:39:41;;;;;;;4.13;1.50;;;;;;;;;;5049921;28;20387;-77
2022/06/25 08:42:07;;;;;;;2.63;1.40;;;;;;;;;;5046002;28;20538;-75
2022/06/25 08:44:34;;;;;;;4.33;1.50;;;;;;;;;;5040458;28;20465;-77
2022/06/25 08:47:00;;;;;;;2.63;1.10;;;;;;;;;;5040468;28;20405;-76
2022/06/25 08:49:29;;;;;;;2.80;1.50;;;;;;;;;;5039258;28;20413;-77
2022/06/25 08:51:57;;;;;;;3.97;1.10;;;;;;;;;;5045849;28;20424;-77
2022/06/25 08:54:24;;;;;;;1.37;1.10;;;;;;;;;;5042962;28;20406;-77
2022/06/25 08:56:50;;;;;;;3.20;1.30;;;;;;;;;;5039343;28;20428;-76
2022/06/25 08:59:16;;;;;;;3.10;1.67;;;;;;;;;;5040954;28;20432;-77
2022/06/25 09:01:42;;;;;;;5.90;1.40;;;;;;;;;;5044345;28;20421;-77
2022/06/25 09:04:08;;;;;;;5.50;1.50;;;;;;;;;;5034553;28;20413;-76
2022/06/25 09:06:34;;;;;;;3.13;1.30;;;;;;;;;;5032338;28;20442;-76
2022/06/25 09:09:15;;;;;;;2.80;1.37;;;;;;;;;;5035447;28;20770;-76
2022/06/25 09:11:53;;;;;;;3.60;1.40;;;;;;;;;;5035660;28;20914;-77
2022/06/25 09:14:27;;;;;;;2.80;1.50;;;;;;;;;;5035199;28;20435;-77
2022/06/25 09:16:57;;;;;;;4.43;1.20;;;;;;;;;;5035715;28;20834;-75
2022/06/25 09:19:31;;;;;;;7.57;1.67;;;;;;;;;;5035459;28;20427;-77
2022/06/25 09:21:58;;;;;;;4.00;1.40;;;;;;;;;;5035481;28;20927;-77
2022/06/25 09:24:24;;;;;;;2.47;1.20;;;;;;;;;;5034961;28;20709;-78
2022/06/25 09:26:51;;;;;;;2.83;1.23;;;;;;;;;;5035480;28;20418;-78
2022/06/25 09:29:17;;;;;;;4.30;1.63;;;;;;;;;;5035210;28;20417;-77
2022/06/25 09:31:43;;;;;;;2.00;1.10;;;;;;;;;;5035239;28;20440;-78
2022/06/25 09:34:09;;;;;;;2.50;1.37;;;;;;;;;;5034801;28;20776;-78
2022/06/25 09:36:36;;;;;;;6.17;1.00;;;;;;;;;;5035033;28;20556;-78
2022/06/25 09:39:02;;;;;;;6.87;1.77;;;;;;;;;;5034991;28;20413;-78
2022/06/25 09:41:47;;;;;;;2.87;1.13;;;;;;;;;;5034786;28;20417;-78
2022/06/25 09:44:18;;;;;;;2.63;1.20;;;;;;;;;;5034734;28;20415;-78
2022/06/25 09:46:57;;;;;;;1.97;1.03;;;;;;;;;;5034927;28;20421;-77
2022/06/25 09:49:26;;;;;;;2.90;1.00;;;;;;;;;;5039694;28;20405;-75
2022/06/25 09:52:00;;;;;;;4.40;1.30;;;;;;;;;;5047393;28;20443;-75
2022/06/25 09:54:26;;;;;;;2.70;1.07;;;;;;;;;;5051380;28;20956;-74
2022/06/25 09:56:54;;;;;;;5.63;1.13;;;;;;;;;;5042032;28;20488;-74
2022/06/25 09:59:21;;;;;;;6.00;1.13;;;;;;;;;;5034671;28;20414;-75
2022/06/25 10:01:47;;;;;;;3.77;1.47;;;;;;;;;;5034733;28;20467;-75
2022/06/25 10:04:13;;;;;;;2.97;1.30;;;;;;;;;;5034523;28;20436;-75
2022/06/25 10:06:40;;;;;;;1.83;1.00;;;;;;;;;;5034820;28;20452;-75
2022/06/25 10:09:07;;;;;;;1.83;1.00;;;;;;;;;;5034576;28;20414;-74
2022/06/25 10:11:37;;;;;;;3.30;1.40;;;;;;;;;;5034716;28;20421;-76
2022/06/25 10:14:03;;;;;;;2.73;1.10;;;;;;;;;;5034396;28;20803;-75
2022/06/25 10:16:29;;;;;;;2.17;1.10;;;;;;;;;;5034029;28;20605;-74
2022/06/25 10:18:56;;;;;;;2.53;1.00;;;;;;;;;;5032272;28;20410;-75
2022/06/25 10:21:23;;;;;;;3.07;1.17;;;;;;;;;;5034273;28;20961;-76
2022/06/25 10:23:50;;;;;;;3.30;1.40;;;;;;;;;;5034091;28;20414;-72
2022/06/25 10:26:16;;;;;;;2.20;1.17;;;;;;;;;;5034310;28;20464;-74
2022/06/25 10:28:43;;;;;;;5.17;0.93;;;;;;;;;;5034294;28;20406;-73
2022/06/25 10:31:14;;;;;;;2.10;1.20;;;;;;;;;;5034135;28;20422;-74
2022/06/25 10:33:57;;;;;;;4.07;1.03;;;;;;;;;;5032421;28;20431;-73
2022/06/25 10:36:38;;;;;;;3.50;1.10;;;;;;;;;;5033941;28;20472;-74
2022/06/25 10:39:24;;;;;;;3.10;0.97;;;;;;;;;;5033957;28;20405;-74
2022/06/25 10:44:53;;;;;;;2.40;1.00;;;;;;;;;;5033448;28;20455;-74
2022/06/25 10:47:36;;;;;;;2.90;1.10;;;;;;;;;;5033769;28;20406;-74
2022/06/25 10:50:20;;;;;;;1.80;1.27;;;;;;;;;;5037006;28;20420;-74
2022/06/25 10:53:02;;;;;;;2.43;1.20;;;;;;;;;;5048551;28;20420;-74
2022/06/25 10:55:28;;;;;;;4.63;1.40;;;;;;;;;;5052275;28;20472;-74
2022/06/25 10:58:13;;;;;;;2.77;1.00;;;;;;;;;;5053418;28;20901;-74
2022/06/25 11:00:49;;;;;;;2.30;1.17;;;;;;;;;;5050282;28;20908;-74
2022/06/25 11:03:38;;;;;;;3.47;1.03;;;;;;;;;;5053342;28;20437;-74
2022/06/25 11:06:22;;;;;;;2.90;1.30;;;;;;;;;;5053091;28;20819;-73
2022/06/25 11:08:49;;;;;;;1.77;1.07;;;;;;;;;;5052929;28;20437;-74
2022/06/25 11:11:32;;;;;;;1.97;1.00;;;;;;;;;;5036351;28;20561;-73
2022/06/25 11:13:58;;;;;;;2.80;0.97;;;;;;;;;;5033078;28;20819;-74
2022/06/25 11:16:24;;;;;;;5.93;1.37;;;;;;;;;;5033174;28;20483;-74
2022/06/25 11:18:59;;;;;;;3.03;1.53;;;;;;;;;;5033312;28;20492;-73
2022/06/25 11:21:35;;;;;;;1.90;1.37;;;;;;;;;;5032124;28;20414;-73
2022/06/25 11:24:07;;;;;;;1.87;1.30;;;;;;;;;;5032968;28;20413;-73
2022/06/25 11:29:31;;;;;;;1.97;1.13;;;;;;;;;;5032971;28;20838;-74
2022/06/25 11:31:57;;;;;;;5.83;1.13;;;;;;;;;;5032026;28;20424;-74
2022/06/25 11:34:24;;;;;;;3.17;1.10;;;;;;;;;;5032533;28;20499;-73
2022/06/25 11:36:57;;;;;;;3.77;1.43;;;;;;;;;;5032959;28;20520;-74
2022/06/25 11:39:23;;;;;;;1.70;0.97;;;;;;;;;;5032907;28;20454;-75
2022/06/25 11:41:52;;;;;;;3.70;1.13;;;;;;;;;;5032597;28;20417;-74
2022/06/25 11:44:19;;;;;;;8.30;2.20;;;;;;;;;;5032224;28;20394;-74
2022/06/25 11:46:45;;;;;;;3.53;1.47;;;;;;;;;;5032731;28;20431;-74
2022/06/25 11:49:12;;;;;;;5.60;1.20;;;;;;;;;;5032654;28;20421;-74
2022/06/25 11:51:44;;;;;;;3.70;1.50;;;;;;;;;;5032644;28;20417;-73
2022/06/25 11:54:10;;;;;;;2.80;1.33;;;;;;;;;;5032228;28;20465;-74
2022/06/25 11:56:36;;;;;;;1.63;1.10;;;;;;;;;;5032471;28;20473;-74
2022/06/25 11:59:02;;;;;;;3.10;1.50;;;;;;;;;;5032761;28;20431;-74
2022/06/25 12:01:29;;;;;;;4.10;1.57;;;;;;;;;;5032340;28;20452;-78
2022/06/25 12:03:56;;;;;;;2.70;1.60;;;;;;;;;;5032365;28;20409;-77
2022/06/25 12:06:23;;;;;;;1.50;1.40;;;;;;;;;;5032599;28;20439;-77
2022/06/25 12:08:49;;;;;;;2.03;1.23;;;;;;;;;;5032579;28;20460;-78
2022/06/25 12:11:15;;;;;;;2.30;1.50;;;;;;;;;;5032539;28;20412;-78
2022/06/25 12:13:41;;;;;;;3.10;1.30;;;;;;;;;;5032345;28;20512;-77
2022/06/25 12:16:07;;;;;;;5.73;1.30;;;;;;;;;;5030379;28;20475;-77
2022/06/25 12:18:34;;;;;;;2.70;1.23;;;;;;;;;;5041293;28;20497;-77
2022/06/25 12:21:00;;;;;;;2.90;1.20;;;;;;;;;;5049578;28;20835;-77
2022/06/25 12:23:26;;;;;;;1.67;1.20;;;;;;;;;;5052234;28;20409;-77
2022/06/25 12:25:52;;;;;;;2.20;1.13;;;;;;;;;;5052373;28;20481;-77
2022/06/25 12:28:35;;;;;;;4.17;1.13;;;;;;;;;;5052156;28;20421;-77
2022/06/25 12:31:10;;;;;;;3.63;1.30;;;;;;;;;;5052402;28;20412;-77
2022/06/25 12:33:36;;;;;;;1.53;1.17;;;;;;;;;;5051576;28;20424;-77
2022/06/25 12:36:02;;;;;;;2.37;1.30;;;;;;;;;;5051933;28;20516;-77
2022/06/25 12:38:39;;;;;;;3.57;1.10;;;;;;;;;;5052025;28;20728;-77
2022/06/25 12:41:05;;;;;;;2.67;1.30;;;;;;;;;;5051827;28;20412;-78
2022/06/25 12:43:43;;;;;;;2.60;1.10;;;;;;;;;;5054371;28;20503;-77
2022/06/25 12:46:09;;;;;;;1.90;1.20;;;;;;;;;;5054780;28;20968;-77
2022/06/25 12:48:35;;;;;;;3.13;1.27;;;;;;;;;;5054424;28;20447;-77
2022/06/25 12:51:08;;;;;;;2.83;1.27;;;;;;;;;;5054674;28;20408;-77
2022/06/25 12:53:35;;;;;;;2.33;1.40;;;;;;;;;;5037921;28;20920;-78
2022/06/25 12:56:01;;;;;;;6.80;1.30;;;;;;;;;;5055737;28;21056;-77
2022/06/25 12:58:33;;;;;;;1.93;1.17;;;;;;;;;;5056011;28;20412;-77
2022/06/25 13:00:59;;;;;;;3.33;1.40;;;;;;;;;;5055796;28;20401;-77
2022/06/25 13:03:25;;;;;;;2.83;1.00;;;;;;;;;;5055417;28;20413;-77
2022/06/25 13:05:51;;;;;;;3.20;1.00;;;;;;;;;;5055646;28;20441;-77
2022/06/25 13:08:17;;;;;;;4.00;1.17;;;;;;;;;;5055770;28;20408;-77
2022/06/25 13:10:43;;;;;;;4.17;1.37;;;;;;;;;;5055950;28;20781;-77
2022/06/25 13:13:09;;;;;;;1.53;1.20;;;;;;;;;;5055533;28;20420;-77
2022/06/25 13:15:35;;;;;;;1.90;1.10;;;;;;;;;;5054150;28;20452;-77
2022/06/25 13:18:01;;;;;;;2.50;1.37;;;;;;;;;;5055505;28;20417;-77
2022/06/25 13:20:28;;;;;;;3.50;1.30;;;;;;;;;;5055504;28;20499;-77
2022/06/25 13:22:54;;;;;;;1.80;1.47;;;;;;;;;;5055156;28;20500;-77
2022/06/25 13:25:20;;;;;;;3.57;1.30;;;;;;;;;;5055382;28;20494;-76
2022/06/25 13:27:46;;;;;;;3.40;1.10;;;;;;;;;;5055399;28;20466;-77
2022/06/25 13:30:13;;;;;;;1.60;1.20;;;;;;;;;;5055344;28;20491;-77
2022/06/25 13:32:39;;;;;;;2.40;1.03;;;;;;;;;;5054991;28;20456;-77
2022/06/25 13:35:06;;;;;;;1.90;1.00;;;;;;;;;;5054761;28;20452;-77
2022/06/25 13:37:32;;;;;;;2.23;1.03;;;;;;;;;;5053951;28;20432;-77
2022/06/25 13:39:58;;;;;;;4.27;1.40;;;;;;;;;;5053745;28;20409;-77
2022/06/25 13:42:24;;;;;;;2.50;1.27;;;;;;;;;;5055049;28;20928;-77
2022/06/25 13:44:50;;;;;;;2.77;1.10;;;;;;;;;;5054447;28;20435;-77
2022/06/25 13:47:16;;;;;;;1.33;1.00;;;;;;;;;;5054827;28;20495;-77
2022/06/25 13:49:42;;;;;;;1.63;1.20;;;;;;;;;;5053567;28;20516;-77
2022/06/25 13:52:08;;;;;;;3.53;2.10;;;;;;;;;;5054935;28;20898;-77
2022/06/25 13:54:35;;;;;;;3.07;1.13;;;;;;;;;;5053209;28;20439;-77
2022/06/25 13:57:01;;;;;;;1.73;1.00;;;;;;;;;;5054726;28;20423;-78
2022/06/25 13:59:27;;;;;;;3.23;1.17;;;;;;;;;;5054557;28;20417;-77
2022/06/25 14:01:53;;;;;;;3.23;1.10;;;;;;;;;;5054850;28;20412;-77
2022/06/25 14:04:19;;;;;;;3.37;1.40;;;;;;;;;;5053138;28;20474;-77
2022/06/25 14:06:46;;;;;;;1.37;1.10;;;;;;;;;;5054883;28;20882;-77
2022/06/25 14:09:12;;;;;;;2.90;1.30;;;;;;;;;;5054612;28;20474;-77
2022/06/25 14:11:39;;;;;;;2.03;1.10;;;;;;;;;;5054654;28;20415;-78
2022/06/25 14:14:05;;;;;;;1.33;1.00;;;;;;;;;;5054129;28;20417;-78
2022/06/25 14:16:31;;;;;;;5.83;1.27;;;;;;;;;;5054140;28;20513;-77
2022/06/25 14:18:58;;;;;;;2.47;1.40;;;;;;;;;;5053051;28;20421;-77
2022/06/25 14:21:24;;;;;;;3.57;1.17;;;;;;;;;;5054135;28;20413;-77
2022/06/25 14:23:49;;;;;;;3.23;1.53;;;;;;;;;;5054002;28;20417;-77
2022/06/25 14:26:16;;;;;;;3.03;1.40;;;;;;;;;;5053186;28;20598;-77
2022/06/25 14:28:42;;;;;;;2.07;1.30;;;;;;;;;;5052974;28;20935;-77
2022/06/25 14:31:08;;;;;;;2.97;1.30;;;;;;;;;;5054160;28;20402;-77
2022/06/25 14:33:34;;;;;;;2.43;1.30;;;;;;;;;;5053589;28;20915;-77
2022/06/25 14:44:15;;;;;;;3.40;1.10;;;;;;;;;;5053635;28;20554;-78
2022/06/25 14:46:41;;;;;;;2.33;1.30;;;;;;;;;;5052430;28;20420;-77
2022/06/25 14:49:08;;;;;;;1.83;1.30;;;;;;;;;;5053710;28;20422;-77
2022/06/25 14:51:34;;;;;;;2.43;1.13;;;;;;;;;;5053390;28;20500;-78
2022/06/25 14:54:00;;;;;;;2.40;1.23;;;;;;;;;;5053196;28;20417;-78
2022/06/25 14:56:26;;;;;;;2.20;1.17;;;;;;;;;;5053409;28;20469;-78
2022/06/25 14:58:52;;;;;;;3.23;1.13;;;;;;;;;;5053625;28;20487;-78
2022/06/25 15:01:18;;;;;;;2.40;0.90;;;;;;;;;;5053401;28;20413;-78
2022/06/25 15:03:48;;;;;;;1.50;1.07;;;;;;;;;;5053114;28;20495;-79
2022/06/25 15:06:14;;;;;;;2.13;1.33;;;;;;;;;;5053178;28;20910;-78